sensor_id;sensor_type;location;lat;lon;timestamp;P1;durP1;ratioP1;P2;durP2;ratioP2
44842;SDS011;31884;52.538;13.820;2024-02-23T00:01:31;1.52;;;1.42;;
44842;SDS011;31884;52.538;13.820;2024-02-23T00:03:56;2.17;;;1.60;;
44842;SDS011;31884;52.538;13.820;2024-02-23T00:06:22;1.40;;;1.30;;
44842;SDS011;31884;52.538;13.820;2024-02-23T00:08:53;1.85;;;1.48;;
44842;SDS011;31884;52.538;13.820;2024-02-23T00:11:19;2.10;;;1.70;;
44842;SDS011;31884;52.538;13.820;2024-02-23T00:13:45;1.35;;;1.25;;
44842;SDS011;31884;52.538;13.820;2024-02-23T00:16:11;1.30;;;1.20;;
44842;SDS011;31884;52.538;13.820;2024-02-23T00:18:36;1.15;;;1.05;;
44842;SDS011;31884;52.538;13.820;2024-02-23T00:21:03;1.17;;;1.02;;
44842;SDS011;31884;52.538;13.820;2024-02-23T00:23:28;3.28;;;1.00;;
44842;SDS011;31884;52.538;13.820;2024-02-23T00:25:54;10.48;;;1.60;;
44842;SDS011;31884;52.538;13.820;2024-02-23T00:28:19;1.58;;;1.35;;
44842;SDS011;31884;52.538;13.820;2024-02-23T00:30:45;1.65;;;1.13;;
44842;SDS011;31884;52.538;13.820;2024-02-23T00:33:10;1.52;;;1.00;;
44842;SDS011;31884;52.538;13.820;2024-02-23T00:35:36;2.40;;;1.42;;
44842;SDS011;31884;52.538;13.820;2024-02-23T00:38:01;5.03;;;1.20;;
44842;SDS011;31884;52.538;13.820;2024-02-23T00:40:27;1.25;;;0.85;;
44842;SDS011;31884;52.538;13.820;2024-02-23T00:42:52;1.25;;;1.02;;
44842;SDS011;31884;52.538;13.820;2024-02-23T00:45:18;2.42;;;1.00;;
44842;SDS011;31884;52.538;13.820;2024-02-23T00:47:44;1.27;;;0.90;;
44842;SDS011;31884;52.538;13.820;2024-02-23T00:50:11;2.25;;;1.08;;
44842;SDS011;31884;52.538;13.820;2024-02-23T00:52:37;1.20;;;1.10;;
44842;SDS011;31884;52.538;13.820;2024-02-23T00:55:03;1.15;;;0.80;;
44842;SDS011;31884;52.538;13.820;2024-02-23T00:57:28;1.02;;;0.80;;
44842;SDS011;31884;52.538;13.820;2024-02-23T00:59:58;1.60;;;1.20;;
44842;SDS011;31884;52.538;13.820;2024-02-23T01:02:23;1.00;;;0.90;;
44842;SDS011;31884;52.538;13.820;2024-02-23T01:04:49;1.15;;;0.90;;
44842;SDS011;31884;52.538;13.820;2024-02-23T01:07:14;1.48;;;1.00;;
44842;SDS011;31884;52.538;13.820;2024-02-23T01:09:40;1.80;;;0.85;;
44842;SDS011;31884;52.538;13.820;2024-02-23T01:12:06;0.95;;;0.93;;
44842;SDS011;31884;52.538;13.820;2024-02-23T01:14:31;1.35;;;1.25;;
44842;SDS011;31884;52.538;13.820;2024-02-23T01:16:57;1.40;;;0.98;;
44842;SDS011;31884;52.538;13.820;2024-02-23T01:19:22;1.08;;;0.93;;
44842;SDS011;31884;52.538;13.820;2024-02-23T01:21:48;2.22;;;0.90;;
44842;SDS011;31884;52.538;13.820;2024-02-23T01:24:20;1.10;;;0.85;;
44842;SDS011;31884;52.538;13.820;2024-02-23T01:26:46;1.38;;;0.90;;
44842;SDS011;31884;52.538;13.820;2024-02-23T01:29:11;2.85;;;1.27;;
44842;SDS011;31884;52.538;13.820;2024-02-23T01:31:37;4.28;;;1.00;;
44842;SDS011;31884;52.538;13.820;2024-02-23T01:34:03;0.98;;;0.80;;
44842;SDS011;31884;52.538;13.820;2024-02-23T01:36:28;1.98;;;1.30;;
44842;SDS011;31884;52.538;13.820;2024-02-23T01:38:54;0.80;;;0.70;;
44842;SDS011;31884;52.538;13.820;2024-02-23T01:41:19;1.33;;;0.98;;
44842;SDS011;31884;52.538;13.820;2024-02-23T01:43:45;1.20;;;0.90;;
44842;SDS011;31884;52.538;13.820;2024-02-23T01:46:11;1.73;;;1.10;;
44842;SDS011;31884;52.538;13.820;2024-02-23T01:48:36;0.70;;;0.70;;
44842;SDS011;31884;52.538;13.820;2024-02-23T01:51:02;1.10;;;1.00;;
44842;SDS011;31884;52.538;13.820;2024-02-23T01:53:28;1.17;;;0.90;;
44842;SDS011;31884;52.538;13.820;2024-02-23T01:55:53;1.20;;;0.80;;
44842;SDS011;31884;52.538;13.820;2024-02-23T01:58:19;1.50;;;0.95;;
44842;SDS011;31884;52.538;13.820;2024-02-23T02:00:46;1.10;;;0.82;;
44842;SDS011;31884;52.538;13.820;2024-02-23T02:03:11;2.80;;;0.82;;
44842;SDS011;31884;52.538;13.820;2024-02-23T02:05:37;1.30;;;0.90;;
44842;SDS011;31884;52.538;13.820;2024-02-23T02:08:02;1.60;;;0.70;;
44842;SDS011;31884;52.538;13.820;2024-02-23T02:10:29;1.25;;;0.80;;
44842;SDS011;31884;52.538;13.820;2024-02-23T02:12:54;1.55;;;1.20;;
44842;SDS011;31884;52.538;13.820;2024-02-23T02:15:20;0.93;;;0.90;;
44842;SDS011;31884;52.538;13.820;2024-02-23T02:17:47;1.58;;;1.08;;
44842;SDS011;31884;52.538;13.820;2024-02-23T02:20:13;0.82;;;0.80;;
44842;SDS011;31884;52.538;13.820;2024-02-23T02:22:39;1.42;;;0.75;;
44842;SDS011;31884;52.538;13.820;2024-02-23T02:25:05;0.60;;;0.60;;
44842;SDS011;31884;52.538;13.820;2024-02-23T02:27:31;0.82;;;0.75;;
44842;SDS011;31884;52.538;13.820;2024-02-23T02:29:57;1.02;;;0.80;;
44842;SDS011;31884;52.538;13.820;2024-02-23T02:32:23;1.48;;;1.17;;
44842;SDS011;31884;52.538;13.820;2024-02-23T02:34:48;3.88;;;1.13;;
44842;SDS011;31884;52.538;13.820;2024-02-23T02:37:14;2.55;;;0.80;;
44842;SDS011;31884;52.538;13.820;2024-02-23T02:39:40;0.90;;;0.60;;
44842;SDS011;31884;52.538;13.820;2024-02-23T02:42:05;0.82;;;0.68;;
44842;SDS011;31884;52.538;13.820;2024-02-23T02:44:31;1.73;;;0.70;;
44842;SDS011;31884;52.538;13.820;2024-02-23T02:46:56;1.20;;;0.47;;
44842;SDS011;31884;52.538;13.820;2024-02-23T02:49:22;0.45;;;0.38;;
44842;SDS011;31884;52.538;13.820;2024-02-23T02:51:48;0.73;;;0.40;;
44842;SDS011;31884;52.538;13.820;2024-02-23T02:54:13;2.22;;;0.50;;
44842;SDS011;31884;52.538;13.820;2024-02-23T02:56:42;1.00;;;0.40;;
44842;SDS011;31884;52.538;13.820;2024-02-23T02:59:08;1.02;;;0.20;;
44842;SDS011;31884;52.538;13.820;2024-02-23T03:01:35;1.02;;;0.40;;
44842;SDS011;31884;52.538;13.820;2024-02-23T03:04:00;1.83;;;0.40;;
44842;SDS011;31884;52.538;13.820;2024-02-23T03:06:26;1.40;;;0.32;;
44842;SDS011;31884;52.538;13.820;2024-02-23T03:08:51;1.08;;;0.57;;
44842;SDS011;31884;52.538;13.820;2024-02-23T03:11:17;1.25;;;0.30;;
44842;SDS011;31884;52.538;13.820;2024-02-23T03:13:42;0.52;;;0.30;;
44842;SDS011;31884;52.538;13.820;2024-02-23T03:16:14;1.45;;;0.60;;
44842;SDS011;31884;52.538;13.820;2024-02-23T03:18:40;0.45;;;0.30;;
44842;SDS011;31884;52.538;13.820;2024-02-23T03:21:06;1.52;;;0.45;;
44842;SDS011;31884;52.538;13.820;2024-02-23T03:23:31;1.58;;;0.30;;
44842;SDS011;31884;52.538;13.820;2024-02-23T03:25:57;1.45;;;0.30;;
44842;SDS011;31884;52.538;13.820;2024-02-23T03:28:22;0.65;;;0.43;;
44842;SDS011;31884;52.538;13.820;2024-02-23T03:30:48;1.10;;;0.40;;
44842;SDS011;31884;52.538;13.820;2024-02-23T03:33:13;1.80;;;0.30;;
44842;SDS011;31884;52.538;13.820;2024-02-23T03:35:39;1.77;;;0.60;;
44842;SDS011;31884;52.538;13.820;2024-02-23T03:38:04;0.30;;;0.30;;
44842;SDS011;31884;52.538;13.820;2024-02-23T03:40:29;0.98;;;0.30;;
44842;SDS011;31884;52.538;13.820;2024-02-23T03:42:55;0.47;;;0.20;;
44842;SDS011;31884;52.538;13.820;2024-02-23T03:45:20;0.90;;;0.25;;
44842;SDS011;31884;52.538;13.820;2024-02-23T03:47:46;0.63;;;0.50;;
44842;SDS011;31884;52.538;13.820;2024-02-23T03:50:11;2.58;;;0.65;;
44842;SDS011;31884;52.538;13.820;2024-02-23T03:52:37;2.25;;;0.30;;
44842;SDS011;31884;52.538;13.820;2024-02-23T03:55:02;0.50;;;0.30;;
44842;SDS011;31884;52.538;13.820;2024-02-23T03:57:28;1.02;;;0.30;;
44842;SDS011;31884;52.538;13.820;2024-02-23T03:59:54;1.27;;;0.30;;
44842;SDS011;31884;52.538;13.820;2024-02-23T04:02:20;2.85;;;0.50;;
44842;SDS011;31884;52.538;13.820;2024-02-23T04:04:47;0.80;;;0.40;;
44842;SDS011;31884;52.538;13.820;2024-02-23T04:07:12;0.45;;;0.20;;
44842;SDS011;31884;52.538;13.820;2024-02-23T04:09:38;0.20;;;0.20;;
44842;SDS011;31884;52.538;13.820;2024-02-23T04:12:03;1.02;;;0.30;;
44842;SDS011;31884;52.538;13.820;2024-02-23T04:14:29;0.22;;;0.22;;
44842;SDS011;31884;52.538;13.820;2024-02-23T04:16:54;1.20;;;0.40;;
44842;SDS011;31884;52.538;13.820;2024-02-23T04:19:20;3.22;;;0.50;;
44842;SDS011;31884;52.538;13.820;2024-02-23T04:21:45;0.55;;;0.40;;
44842;SDS011;31884;52.538;13.820;2024-02-23T04:24:11;1.08;;;0.30;;
44842;SDS011;31884;52.538;13.820;2024-02-23T04:26:36;0.10;;;0.10;;
44842;SDS011;31884;52.538;13.820;2024-02-23T04:29:02;0.90;;;0.28;;
44842;SDS011;31884;52.538;13.820;2024-02-23T04:31:27;0.82;;;0.25;;
44842;SDS011;31884;52.538;13.820;2024-02-23T04:33:53;0.93;;;0.40;;
44842;SDS011;31884;52.538;13.820;2024-02-23T04:36:19;0.25;;;0.22;;
44842;SDS011;31884;52.538;13.820;2024-02-23T04:38:46;0.85;;;0.40;;
44842;SDS011;31884;52.538;13.820;2024-02-23T04:41:11;3.45;;;0.40;;
44842;SDS011;31884;52.538;13.820;2024-02-23T04:43:37;0.68;;;0.30;;
44842;SDS011;31884;52.538;13.820;2024-02-23T04:46:02;0.85;;;0.55;;
44842;SDS011;31884;52.538;13.820;2024-02-23T04:48:28;1.55;;;0.30;;
44842;SDS011;31884;52.538;13.820;2024-02-23T04:50:55;0.50;;;0.40;;
44842;SDS011;31884;52.538;13.820;2024-02-23T04:53:21;0.77;;;0.40;;
44842;SDS011;31884;52.538;13.820;2024-02-23T04:55:47;2.13;;;0.40;;
44842;SDS011;31884;52.538;13.820;2024-02-23T04:58:12;2.10;;;0.57;;
44842;SDS011;31884;52.538;13.820;2024-02-23T05:00:38;2.13;;;0.50;;
44842;SDS011;31884;52.538;13.820;2024-02-23T05:03:05;0.90;;;0.30;;
44842;SDS011;31884;52.538;13.820;2024-02-23T05:05:31;2.17;;;1.48;;
44842;SDS011;31884;52.538;13.820;2024-02-23T05:07:57;1.87;;;0.43;;
44842;SDS011;31884;52.538;13.820;2024-02-23T05:10:22;1.45;;;0.30;;
44842;SDS011;31884;52.538;13.820;2024-02-23T05:12:48;1.02;;;0.40;;
44842;SDS011;31884;52.538;13.820;2024-02-23T05:15:14;2.80;;;0.60;;
44842;SDS011;31884;52.538;13.820;2024-02-23T05:17:40;2.35;;;0.28;;
44842;SDS011;31884;52.538;13.820;2024-02-23T05:20:06;4.00;;;0.45;;
44842;SDS011;31884;52.538;13.820;2024-02-23T05:22:33;0.77;;;0.20;;
44842;SDS011;31884;52.538;13.820;2024-02-23T05:24:58;0.70;;;0.43;;
44842;SDS011;31884;52.538;13.820;2024-02-23T05:27:24;1.33;;;0.55;;
44842;SDS011;31884;52.538;13.820;2024-02-23T05:29:50;1.75;;;0.40;;
44842;SDS011;31884;52.538;13.820;2024-02-23T05:32:15;1.05;;;0.45;;
44842;SDS011;31884;52.538;13.820;2024-02-23T05:34:42;0.75;;;0.20;;
44842;SDS011;31884;52.538;13.820;2024-02-23T05:37:07;0.40;;;0.40;;
44842;SDS011;31884;52.538;13.820;2024-02-23T05:39:33;0.32;;;0.32;;
44842;SDS011;31884;52.538;13.820;2024-02-23T05:41:58;1.33;;;0.38;;
44842;SDS011;31884;52.538;13.820;2024-02-23T05:44:24;0.52;;;0.32;;
44842;SDS011;31884;52.538;13.820;2024-02-23T05:46:50;0.20;;;0.20;;
44842;SDS011;31884;52.538;13.820;2024-02-23T05:49:15;2.08;;;0.45;;
44842;SDS011;31884;52.538;13.820;2024-02-23T05:51:41;1.17;;;0.65;;
44842;SDS011;31884;52.538;13.820;2024-02-23T05:54:07;0.88;;;0.40;;
44842;SDS011;31884;52.538;13.820;2024-02-23T05:56:33;4.55;;;0.40;;
44842;SDS011;31884;52.538;13.820;2024-02-23T05:58:58;0.70;;;0.40;;
44842;SDS011;31884;52.538;13.820;2024-02-23T06:01:24;0.35;;;0.30;;
44842;SDS011;31884;52.538;13.820;2024-02-23T06:03:49;1.40;;;0.38;;
44842;SDS011;31884;52.538;13.820;2024-02-23T06:06:15;0.22;;;0.20;;
44842;SDS011;31884;52.538;13.820;2024-02-23T06:08:40;0.70;;;0.25;;
44842;SDS011;31884;52.538;13.820;2024-02-23T06:11:06;0.22;;;0.22;;
44842;SDS011;31884;52.538;13.820;2024-02-23T06:13:34;1.00;;;0.40;;
44842;SDS011;31884;52.538;13.820;2024-02-23T06:16:00;3.85;;;0.38;;
44842;SDS011;31884;52.538;13.820;2024-02-23T06:18:25;0.30;;;0.30;;
44842;SDS011;31884;52.538;13.820;2024-02-23T06:20:51;0.57;;;0.30;;
44842;SDS011;31884;52.538;13.820;2024-02-23T06:23:16;0.40;;;0.30;;
44842;SDS011;31884;52.538;13.820;2024-02-23T06:25:42;0.50;;;0.40;;
44842;SDS011;31884;52.538;13.820;2024-02-23T06:28:11;0.43;;;0.30;;
44842;SDS011;31884;52.538;13.820;2024-02-23T06:30:37;4.90;;;0.80;;
44842;SDS011;31884;52.538;13.820;2024-02-23T06:33:02;4.93;;;0.80;;
44842;SDS011;31884;52.538;13.820;2024-02-23T06:35:29;1.88;;;1.20;;
44842;SDS011;31884;52.538;13.820;2024-02-23T06:37:54;1.48;;;0.80;;
44842;SDS011;31884;52.538;13.820;2024-02-23T06:40:20;1.35;;;0.98;;
44842;SDS011;31884;52.538;13.820;2024-02-23T06:42:45;1.25;;;0.93;;
44842;SDS011;31884;52.538;13.820;2024-02-23T06:45:11;1.02;;;0.80;;
44842;SDS011;31884;52.538;13.820;2024-02-23T06:47:36;1.83;;;0.80;;
44842;SDS011;31884;52.538;13.820;2024-02-23T06:50:04;0.70;;;0.70;;
44842;SDS011;31884;52.538;13.820;2024-02-23T06:52:30;1.42;;;0.57;;
44842;SDS011;31884;52.538;13.820;2024-02-23T06:54:58;1.48;;;0.50;;
44842;SDS011;31884;52.538;13.820;2024-02-23T06:57:23;0.50;;;0.40;;
44842;SDS011;31884;52.538;13.820;2024-02-23T06:59:50;1.08;;;0.40;;
44842;SDS011;31884;52.538;13.820;2024-02-23T07:02:16;0.80;;;0.70;;
44842;SDS011;31884;52.538;13.820;2024-02-23T07:04:42;0.22;;;0.22;;
44842;SDS011;31884;52.538;13.820;2024-02-23T07:07:07;0.35;;;0.35;;
44842;SDS011;31884;52.538;13.820;2024-02-23T07:09:33;0.52;;;0.30;;
44842;SDS011;31884;52.538;13.820;2024-02-23T07:11:59;0.65;;;0.32;;
44842;SDS011;31884;52.538;13.820;2024-02-23T07:14:25;0.28;;;0.20;;
44842;SDS011;31884;52.538;13.820;2024-02-23T07:16:51;0.20;;;0.20;;
44842;SDS011;31884;52.538;13.820;2024-02-23T07:19:17;0.57;;;0.40;;
44842;SDS011;31884;52.538;13.820;2024-02-23T07:21:44;0.43;;;0.30;;
44842;SDS011;31884;52.538;13.820;2024-02-23T07:24:10;0.52;;;0.28;;
44842;SDS011;31884;52.538;13.820;2024-02-23T07:26:36;0.55;;;0.30;;
44842;SDS011;31884;52.538;13.820;2024-02-23T07:29:01;3.67;;;0.40;;
44842;SDS011;31884;52.538;13.820;2024-02-23T07:31:27;1.00;;;0.30;;
44842;SDS011;31884;52.538;13.820;2024-02-23T07:33:52;0.60;;;0.20;;
44842;SDS011;31884;52.538;13.820;2024-02-23T07:36:18;0.50;;;0.25;;
44842;SDS011;31884;52.538;13.820;2024-02-23T07:38:43;0.63;;;0.30;;
44842;SDS011;31884;52.538;13.820;2024-02-23T07:41:09;0.75;;;0.40;;
44842;SDS011;31884;52.538;13.820;2024-02-23T07:43:36;0.20;;;0.20;;
44842;SDS011;31884;52.538;13.820;2024-02-23T07:46:01;0.57;;;0.30;;
44842;SDS011;31884;52.538;13.820;2024-02-23T07:48:27;0.63;;;0.43;;
44842;SDS011;31884;52.538;13.820;2024-02-23T07:50:53;0.52;;;0.30;;
44842;SDS011;31884;52.538;13.820;2024-02-23T07:53:18;0.90;;;0.55;;
44842;SDS011;31884;52.538;13.820;2024-02-23T07:55:44;1.60;;;0.43;;
44842;SDS011;31884;52.538;13.820;2024-02-23T07:58:09;0.90;;;0.38;;
44842;SDS011;31884;52.538;13.820;2024-02-23T08:00:35;0.80;;;0.63;;
44842;SDS011;31884;52.538;13.820;2024-02-23T08:03:03;0.60;;;0.60;;
44842;SDS011;31884;52.538;13.820;2024-02-23T08:05:29;1.92;;;0.63;;
44842;SDS011;31884;52.538;13.820;2024-02-23T08:07:54;1.48;;;0.45;;
44842;SDS011;31884;52.538;13.820;2024-02-23T08:10:19;0.35;;;0.35;;
44842;SDS011;31884;52.538;13.820;2024-02-23T08:12:46;1.00;;;0.50;;
44842;SDS011;31884;52.538;13.820;2024-02-23T08:15:11;0.32;;;0.20;;
44842;SDS011;31884;52.538;13.820;2024-02-23T08:17:37;0.77;;;0.30;;
44842;SDS011;31884;52.538;13.820;2024-02-23T08:20:02;0.63;;;0.38;;
44842;SDS011;31884;52.538;13.820;2024-02-23T08:22:29;1.05;;;0.32;;
44842;SDS011;31884;52.538;13.820;2024-02-23T08:24:55;2.03;;;0.30;;
44842;SDS011;31884;52.538;13.820;2024-02-23T08:27:20;0.30;;;0.20;;
44842;SDS011;31884;52.538;13.820;2024-02-23T08:29:45;0.70;;;0.43;;
44842;SDS011;31884;52.538;13.820;2024-02-23T08:32:11;0.63;;;0.40;;
44842;SDS011;31884;52.538;13.820;2024-02-23T08:34:37;1.60;;;0.22;;
44842;SDS011;31884;52.538;13.820;2024-02-23T08:37:03;0.30;;;0.30;;
44842;SDS011;31884;52.538;13.820;2024-02-23T08:39:29;0.50;;;0.38;;
44842;SDS011;31884;52.538;13.820;2024-02-23T08:41:54;0.68;;;0.50;;
44842;SDS011;31884;52.538;13.820;2024-02-23T08:44:20;0.73;;;0.60;;
44842;SDS011;31884;52.538;13.820;2024-02-23T08:46:45;0.50;;;0.50;;
44842;SDS011;31884;52.538;13.820;2024-02-23T08:49:11;0.35;;;0.35;;
44842;SDS011;31884;52.538;13.820;2024-02-23T08:51:36;2.60;;;0.50;;
44842;SDS011;31884;52.538;13.820;2024-02-23T08:54:02;0.50;;;0.40;;
44842;SDS011;31884;52.538;13.820;2024-02-23T08:56:30;1.85;;;0.40;;
44842;SDS011;31884;52.538;13.820;2024-02-23T08:58:56;2.28;;;0.40;;
44842;SDS011;31884;52.538;13.820;2024-02-23T09:01:22;1.17;;;0.65;;
44842;SDS011;31884;52.538;13.820;2024-02-23T09:03:48;1.65;;;0.47;;
44842;SDS011;31884;52.538;13.820;2024-02-23T09:06:13;0.95;;;0.55;;
44842;SDS011;31884;52.538;13.820;2024-02-23T09:08:39;1.90;;;0.30;;
44842;SDS011;31884;52.538;13.820;2024-02-23T09:11:05;0.47;;;0.45;;
44842;SDS011;31884;52.538;13.820;2024-02-23T09:13:31;0.82;;;0.43;;
44842;SDS011;31884;52.538;13.820;2024-02-23T09:15:57;0.50;;;0.40;;
44842;SDS011;31884;52.538;13.820;2024-02-23T09:18:22;0.60;;;0.32;;
44842;SDS011;31884;52.538;13.820;2024-02-23T09:20:48;2.10;;;0.77;;
44842;SDS011;31884;52.538;13.820;2024-02-23T09:23:13;0.35;;;0.35;;
44842;SDS011;31884;52.538;13.820;2024-02-23T09:25:39;0.52;;;0.28;;
44842;SDS011;31884;52.538;13.820;2024-02-23T09:28:04;1.17;;;0.57;;
44842;SDS011;31884;52.538;13.820;2024-02-23T09:30:30;1.33;;;0.30;;
44842;SDS011;31884;52.538;13.820;2024-02-23T09:32:56;1.73;;;0.40;;
44842;SDS011;31884;52.538;13.820;2024-02-23T09:35:21;0.60;;;0.30;;
44842;SDS011;31884;52.538;13.820;2024-02-23T09:37:47;1.55;;;0.52;;
44842;SDS011;31884;52.538;13.820;2024-02-23T09:40:12;0.88;;;0.32;;
44842;SDS011;31884;52.538;13.820;2024-02-23T09:42:40;1.15;;;0.40;;
44842;SDS011;31884;52.538;13.820;2024-02-23T09:45:06;0.40;;;0.30;;
44842;SDS011;31884;52.538;13.820;2024-02-23T09:47:33;0.55;;;0.43;;
44842;SDS011;31884;52.538;13.820;2024-02-23T09:49:59;2.42;;;0.57;;
44842;SDS011;31884;52.538;13.820;2024-02-23T09:52:28;2.30;;;0.40;;
44842;SDS011;31884;52.538;13.820;2024-02-23T09:54:54;0.82;;;0.38;;
44842;SDS011;31884;52.538;13.820;2024-02-23T09:57:20;1.25;;;0.57;;
44842;SDS011;31884;52.538;13.820;2024-02-23T09:59:47;0.90;;;0.45;;
44842;SDS011;31884;52.538;13.820;2024-02-23T10:02:15;2.00;;;0.32;;
44842;SDS011;31884;52.538;13.820;2024-02-23T10:04:42;4.18;;;0.68;;
44842;SDS011;31884;52.538;13.820;2024-02-23T10:07:12;1.38;;;0.52;;
44842;SDS011;31884;52.538;13.820;2024-02-23T10:09:40;0.40;;;0.40;;
44842;SDS011;31884;52.538;13.820;2024-02-23T10:12:06;1.20;;;0.47;;
44842;SDS011;31884;52.538;13.820;2024-02-23T10:14:31;0.50;;;0.20;;
44842;SDS011;31884;52.538;13.820;2024-02-23T10:16:57;2.85;;;0.50;;
44842;SDS011;31884;52.538;13.820;2024-02-23T10:19:23;1.75;;;0.30;;
44842;SDS011;31884;52.538;13.820;2024-02-23T10:21:53;1.30;;;0.60;;
44842;SDS011;31884;52.538;13.820;2024-02-23T10:24:19;0.85;;;0.63;;
44842;SDS011;31884;52.538;13.820;2024-02-23T10:26:45;2.75;;;0.90;;
44842;SDS011;31884;52.538;13.820;2024-02-23T10:29:11;2.42;;;0.85;;
44842;SDS011;31884;52.538;13.820;2024-02-23T10:31:37;6.40;;;1.17;;
44842;SDS011;31884;52.538;13.820;2024-02-23T10:34:06;2.88;;;1.20;;
44842;SDS011;31884;52.538;13.820;2024-02-23T10:36:42;1.30;;;0.82;;
44842;SDS011;31884;52.538;13.820;2024-02-23T10:39:08;1.75;;;0.80;;
44842;SDS011;31884;52.538;13.820;2024-02-23T10:41:37;2.40;;;0.93;;
44842;SDS011;31884;52.538;13.820;2024-02-23T10:44:08;1.55;;;0.63;;
44842;SDS011;31884;52.538;13.820;2024-02-23T10:46:35;1.23;;;0.68;;
44842;SDS011;31884;52.538;13.820;2024-02-23T10:49:02;0.98;;;0.60;;
44842;SDS011;31884;52.538;13.820;2024-02-23T10:51:28;0.90;;;0.60;;
44842;SDS011;31884;52.538;13.820;2024-02-23T10:53:54;0.40;;;0.40;;
44842;SDS011;31884;52.538;13.820;2024-02-23T10:56:20;1.02;;;0.50;;
44842;SDS011;31884;52.538;13.820;2024-02-23T10:58:47;0.68;;;0.40;;
44842;SDS011;31884;52.538;13.820;2024-02-23T11:01:13;0.30;;;0.30;;
44842;SDS011;31884;52.538;13.820;2024-02-23T11:03:40;1.60;;;0.60;;
44842;SDS011;31884;52.538;13.820;2024-02-23T11:06:09;3.20;;;1.10;;
44842;SDS011;31884;52.538;13.820;2024-02-23T11:08:35;4.28;;;0.75;;
44842;SDS011;31884;52.538;13.820;2024-02-23T11:11:10;1.98;;;0.60;;
44842;SDS011;31884;52.538;13.820;2024-02-23T11:16:03;3.85;;;0.80;;
44842;SDS011;31884;52.538;13.820;2024-02-23T11:18:29;2.42;;;0.73;;
44842;SDS011;31884;52.538;13.820;2024-02-23T11:21:00;2.63;;;1.15;;
44842;SDS011;31884;52.538;13.820;2024-02-23T11:23:38;2.15;;;0.52;;
44842;SDS011;31884;52.538;13.820;2024-02-23T11:26:05;1.75;;;0.65;;
44842;SDS011;31884;52.538;13.820;2024-02-23T11:28:33;1.70;;;0.60;;
44842;SDS011;31884;52.538;13.820;2024-02-23T11:31:11;0.80;;;0.60;;
44842;SDS011;31884;52.538;13.820;2024-02-23T11:33:40;0.55;;;0.50;;
44842;SDS011;31884;52.538;13.820;2024-02-23T11:36:12;1.67;;;0.77;;
44842;SDS011;31884;52.538;13.820;2024-02-23T11:38:38;1.85;;;0.73;;
44842;SDS011;31884;52.538;13.820;2024-02-23T11:41:04;2.45;;;0.70;;
44842;SDS011;31884;52.538;13.820;2024-02-23T11:43:30;2.30;;;0.70;;
44842;SDS011;31884;52.538;13.820;2024-02-23T11:45:59;0.55;;;0.45;;
44842;SDS011;31884;52.538;13.820;2024-02-23T11:48:24;1.27;;;0.43;;
44842;SDS011;31884;52.538;13.820;2024-02-23T11:50:50;1.70;;;0.80;;
44842;SDS011;31884;52.538;13.820;2024-02-23T11:53:16;1.90;;;0.60;;
44842;SDS011;31884;52.538;13.820;2024-02-23T11:55:41;3.00;;;0.55;;
44842;SDS011;31884;52.538;13.820;2024-02-23T11:58:07;3.67;;;0.90;;
44842;SDS011;31884;52.538;13.820;2024-02-23T12:00:34;0.35;;;0.35;;
44842;SDS011;31884;52.538;13.820;2024-02-23T12:03:00;5.68;;;0.50;;
44842;SDS011;31884;52.538;13.820;2024-02-23T12:05:25;2.97;;;1.17;;
44842;SDS011;31884;52.538;13.820;2024-02-23T12:07:51;0.93;;;0.50;;
44842;SDS011;31884;52.538;13.820;2024-02-23T12:10:18;2.08;;;0.60;;
44842;SDS011;31884;52.538;13.820;2024-02-23T12:12:43;0.73;;;0.43;;
44842;SDS011;31884;52.538;13.820;2024-02-23T12:15:09;0.43;;;0.40;;
44842;SDS011;31884;52.538;13.820;2024-02-23T12:17:35;1.77;;;0.45;;
44842;SDS011;31884;52.538;13.820;2024-02-23T12:20:02;2.28;;;0.40;;
44842;SDS011;31884;52.538;13.820;2024-02-23T12:22:28;1.48;;;0.50;;
44842;SDS011;31884;52.538;13.820;2024-02-23T12:24:57;3.22;;;0.50;;
44842;SDS011;31884;52.538;13.820;2024-02-23T12:27:23;0.88;;;0.25;;
44842;SDS011;31884;52.538;13.820;2024-02-23T12:29:51;1.67;;;0.85;;
44842;SDS011;31884;52.538;13.820;2024-02-23T12:32:19;1.13;;;0.47;;
44842;SDS011;31884;52.538;13.820;2024-02-23T12:34:45;0.90;;;0.50;;
44842;SDS011;31884;52.538;13.820;2024-02-23T12:37:14;2.65;;;0.60;;
44842;SDS011;31884;52.538;13.820;2024-02-23T12:39:40;0.73;;;0.40;;
44842;SDS011;31884;52.538;13.820;2024-02-23T12:42:07;1.88;;;0.55;;
44842;SDS011;31884;52.538;13.820;2024-02-23T12:44:32;2.50;;;0.68;;
44842;SDS011;31884;52.538;13.820;2024-02-23T12:46:58;1.65;;;0.50;;
44842;SDS011;31884;52.538;13.820;2024-02-23T12:49:23;2.60;;;0.50;;
44842;SDS011;31884;52.538;13.820;2024-02-23T12:51:49;1.42;;;0.70;;
44842;SDS011;31884;52.538;13.820;2024-02-23T12:54:14;1.65;;;0.77;;
44842;SDS011;31884;52.538;13.820;2024-02-23T12:56:40;0.25;;;0.20;;
44842;SDS011;31884;52.538;13.820;2024-02-23T12:59:05;3.63;;;0.60;;
44842;SDS011;31884;52.538;13.820;2024-02-23T13:01:32;1.33;;;0.30;;
44842;SDS011;31884;52.538;13.820;2024-02-23T13:04:01;0.52;;;0.22;;
44842;SDS011;31884;52.538;13.820;2024-02-23T13:06:27;0.85;;;0.77;;
44842;SDS011;31884;52.538;13.820;2024-02-23T13:08:52;1.25;;;0.70;;
44842;SDS011;31884;52.538;13.820;2024-02-23T13:11:17;2.25;;;0.50;;
44842;SDS011;31884;52.538;13.820;2024-02-23T13:13:43;1.77;;;0.70;;
44842;SDS011;31884;52.538;13.820;2024-02-23T13:16:09;1.15;;;0.57;;
44842;SDS011;31884;52.538;13.820;2024-02-23T13:18:35;2.10;;;0.60;;
44842;SDS011;31884;52.538;13.820;2024-02-23T13:21:01;4.20;;;0.93;;
44842;SDS011;31884;52.538;13.820;2024-02-23T13:23:28;1.35;;;0.57;;
44842;SDS011;31884;52.538;13.820;2024-02-23T13:25:53;2.40;;;0.40;;
44842;SDS011;31884;52.538;13.820;2024-02-23T13:28:19;1.70;;;0.65;;
44842;SDS011;31884;52.538;13.820;2024-02-23T13:30:44;3.33;;;0.70;;
44842;SDS011;31884;52.538;13.820;2024-02-23T13:33:10;1.83;;;0.85;;
44842;SDS011;31884;52.538;13.820;2024-02-23T13:35:36;1.05;;;0.73;;
44842;SDS011;31884;52.538;13.820;2024-02-23T13:38:02;4.28;;;0.98;;
44842;SDS011;31884;52.538;13.820;2024-02-23T13:40:30;3.00;;;1.40;;
44842;SDS011;31884;52.538;13.820;2024-02-23T13:42:56;1.75;;;1.00;;
44842;SDS011;31884;52.538;13.820;2024-02-23T13:45:22;3.53;;;1.15;;
44842;SDS011;31884;52.538;13.820;2024-02-23T13:47:59;3.85;;;1.55;;
44842;SDS011;31884;52.538;13.820;2024-02-23T13:50:25;3.88;;;1.90;;
44842;SDS011;31884;52.538;13.820;2024-02-23T13:52:51;1.73;;;0.90;;
44842;SDS011;31884;52.538;13.820;2024-02-23T13:55:17;1.77;;;0.70;;
44842;SDS011;31884;52.538;13.820;2024-02-23T13:57:44;2.30;;;0.65;;
44842;SDS011;31884;52.538;13.820;2024-02-23T14:00:10;7.43;;;3.05;;
44842;SDS011;31884;52.538;13.820;2024-02-23T14:02:37;3.65;;;1.50;;
44842;SDS011;31884;52.538;13.820;2024-02-23T14:05:05;4.07;;;1.15;;
44842;SDS011;31884;52.538;13.820;2024-02-23T14:07:34;5.53;;;1.20;;
44842;SDS011;31884;52.538;13.820;2024-02-23T14:10:00;3.53;;;0.70;;
44842;SDS011;31884;52.538;13.820;2024-02-23T14:12:27;2.10;;;0.75;;
44842;SDS011;31884;52.538;13.820;2024-02-23T14:14:52;1.35;;;0.70;;
44842;SDS011;31884;52.538;13.820;2024-02-23T14:17:18;2.08;;;0.60;;
44842;SDS011;31884;52.538;13.820;2024-02-23T14:19:44;1.45;;;0.77;;
44842;SDS011;31884;52.538;13.820;2024-02-23T14:22:09;1.65;;;0.80;;
44842;SDS011;31884;52.538;13.820;2024-02-23T14:24:35;1.88;;;0.50;;
44842;SDS011;31884;52.538;13.820;2024-02-23T14:27:00;2.28;;;1.00;;
44842;SDS011;31884;52.538;13.820;2024-02-23T14:29:26;3.45;;;0.70;;